sensor_id;sensor_type;location;lat;lon;timestamp;temperature;humidity
16485;DHT22;8353;47.856;12.344;2023-10-31T00:02:24;13.60;99.90
16485;DHT22;8353;47.856;12.344;2023-10-31T00:05:11;13.40;99.90
16485;DHT22;8353;47.856;12.344;2023-10-31T00:07:58;13.40;99.90
16485;DHT22;8353;47.856;12.344;2023-10-31T00:10:45;13.30;99.90
16485;DHT22;8353;47.856;12.344;2023-10-31T00:13:32;13.30;99.90
16485;DHT22;8353;47.856;12.344;2023-10-31T00:16:20;13.30;99.90
16485;DHT22;8353;47.856;12.344;2023-10-31T00:19:07;13.20;99.90
16485;DHT22;8353;47.856;12.344;2023-10-31T00:21:54;13.10;99.90
16485;DHT22;8353;47.856;12.344;2023-10-31T00:24:43;13.00;99.90
16485;DHT22;8353;47.856;12.344;2023-10-31T00:27:30;12.80;99.90
16485;DHT22;8353;47.856;12.344;2023-10-31T00:30:17;12.90;99.90
16485;DHT22;8353;47.856;12.344;2023-10-31T00:33:05;12.90;99.90
16485;DHT22;8353;47.856;12.344;2023-10-31T00:35:52;12.80;99.90
16485;DHT22;8353;47.856;12.344;2023-10-31T00:38:39;12.80;99.90
16485;DHT22;8353;47.856;12.344;2023-10-31T00:41:26;12.70;99.90
16485;DHT22;8353;47.856;12.344;2023-10-31T00:44:13;12.60;99.90
16485;DHT22;8353;47.856;12.344;2023-10-31T00:47:00;12.50;99.90
16485;DHT22;8353;47.856;12.344;2023-10-31T00:49:49;12.30;99.90
16485;DHT22;8353;47.856;12.344;2023-10-31T00:52:35;12.20;99.90
16485;DHT22;8353;47.856;12.344;2023-10-31T00:55:22;12.20;99.90
16485;DHT22;8353;47.856;12.344;2023-10-31T00:58:10;12.30;99.90
16485;DHT22;8353;47.856;12.344;2023-10-31T01:00:58;12.20;99.90
16485;DHT22;8353;47.856;12.344;2023-10-31T01:03:45;12.20;99.90
16485;DHT22;8353;47.856;12.344;2023-10-31T01:06:33;12.30;99.90
16485;DHT22;8353;47.856;12.344;2023-10-31T01:09:20;12.30;99.90
16485;DHT22;8353;47.856;12.344;2023-10-31T01:12:07;12.30;99.90
16485;DHT22;8353;47.856;12.344;2023-10-31T01:14:55;12.20;99.90
16485;DHT22;8353;47.856;12.344;2023-10-31T01:17:43;12.30;99.90
16485;DHT22;8353;47.856;12.344;2023-10-31T01:20:30;12.20;99.90
16485;DHT22;8353;47.856;12.344;2023-10-31T01:23:18;12.20;99.90
16485;DHT22;8353;47.856;12.344;2023-10-31T01:26:05;12.20;99.90
16485;DHT22;8353;47.856;12.344;2023-10-31T01:28:52;12.10;99.90
16485;DHT22;8353;47.856;12.344;2023-10-31T01:31:41;12.20;99.90
16485;DHT22;8353;47.856;12.344;2023-10-31T01:34:28;12.10;99.90
16485;DHT22;8353;47.856;12.344;2023-10-31T01:37:15;12.20;99.90
16485;DHT22;8353;47.856;12.344;2023-10-31T01:40:07;12.10;99.90
16485;DHT22;8353;47.856;12.344;2023-10-31T01:42:55;12.10;99.90
16485;DHT22;8353;47.856;12.344;2023-10-31T01:45:42;12.20;99.90
16485;DHT22;8353;47.856;12.344;2023-10-31T01:48:31;12.20;99.90
16485;DHT22;8353;47.856;12.344;2023-10-31T01:51:18;12.20;99.90
16485;DHT22;8353;47.856;12.344;2023-10-31T01:54:06;12.20;99.90
16485;DHT22;8353;47.856;12.344;2023-10-31T01:56:55;12.20;99.90
16485;DHT22;8353;47.856;12.344;2023-10-31T01:59:43;12.20;99.90
16485;DHT22;8353;47.856;12.344;2023-10-31T02:02:33;12.20;99.90
16485;DHT22;8353;47.856;12.344;2023-10-31T02:05:20;12.10;99.90
16485;DHT22;8353;47.856;12.344;2023-10-31T02:08:07;12.30;99.90
16485;DHT22;8353;47.856;12.344;2023-10-31T02:10:55;12.20;99.90
16485;DHT22;8353;47.856;12.344;2023-10-31T02:13:43;12.20;99.90
16485;DHT22;8353;47.856;12.344;2023-10-31T02:16:30;12.20;99.90
16485;DHT22;8353;47.856;12.344;2023-10-31T02:19:19;12.20;99.90
16485;DHT22;8353;47.856;12.344;2023-10-31T02:22:08;12.30;99.90
16485;DHT22;8353;47.856;12.344;2023-10-31T02:24:55;12.10;99.90
16485;DHT22;8353;47.856;12.344;2023-10-31T02:27:42;12.10;99.90
16485;DHT22;8353;47.856;12.344;2023-10-31T02:30:28;12.10;99.90
16485;DHT22;8353;47.856;12.344;2023-10-31T02:33:15;12.10;99.90
16485;DHT22;8353;47.856;12.344;2023-10-31T02:36:03;12.10;99.90
16485;DHT22;8353;47.856;12.344;2023-10-31T02:38:51;11.90;99.90
16485;DHT22;8353;47.856;12.344;2023-10-31T02:41:38;12.10;99.90
16485;DHT22;8353;47.856;12.344;2023-10-31T02:44:25;12.10;99.90
16485;DHT22;8353;47.856;12.344;2023-10-31T02:47:12;12.10;99.90
16485;DHT22;8353;47.856;12.344;2023-10-31T02:49:59;12.20;99.90
16485;DHT22;8353;47.856;12.344;2023-10-31T02:52:46;12.20;99.90
16485;DHT22;8353;47.856;12.344;2023-10-31T02:55:34;12.20;99.90
16485;DHT22;8353;47.856;12.344;2023-10-31T02:58:21;12.30;99.90
16485;DHT22;8353;47.856;12.344;2023-10-31T03:01:08;12.30;99.90
16485;DHT22;8353;47.856;12.344;2023-10-31T03:03:55;12.20;99.90
16485;DHT22;8353;47.856;12.344;2023-10-31T03:06:42;12.10;99.90
16485;DHT22;8353;47.856;12.344;2023-10-31T03:09:29;12.20;99.90
16485;DHT22;8353;47.856;12.344;2023-10-31T03:12:18;12.20;99.90
16485;DHT22;8353;47.856;12.344;2023-10-31T03:15:05;12.30;99.90
16485;DHT22;8353;47.856;12.344;2023-10-31T03:17:53;12.40;99.90
16485;DHT22;8353;47.856;12.344;2023-10-31T03:20:40;12.40;99.90
16485;DHT22;8353;47.856;12.344;2023-10-31T03:23:26;12.40;99.90
16485;DHT22;8353;47.856;12.344;2023-10-31T03:26:13;12.30;99.90
16485;DHT22;8353;47.856;12.344;2023-10-31T03:29:02;12.30;99.90
16485;DHT22;8353;47.856;12.344;2023-10-31T03:31:49;12.30;99.90
16485;DHT22;8353;47.856;12.344;2023-10-31T03:34:35;12.30;99.90
16485;DHT22;8353;47.856;12.344;2023-10-31T03:37:23;12.30;99.90
16485;DHT22;8353;47.856;12.344;2023-10-31T03:40:11;12.30;99.90
16485;DHT22;8353;47.856;12.344;2023-10-31T03:42:58;12.30;99.90
16485;DHT22;8353;47.856;12.344;2023-10-31T03:45:47;12.30;99.90
16485;DHT22;8353;47.856;12.344;2023-10-31T03:48:34;12.40;99.90
16485;DHT22;8353;47.856;12.344;2023-10-31T03:51:21;12.40;99.90
16485;DHT22;8353;47.856;12.344;2023-10-31T03:54:08;12.40;99.90
16485;DHT22;8353;47.856;12.344;2023-10-31T03:56:55;12.40;99.90
16485;DHT22;8353;47.856;12.344;2023-10-31T03:59:42;12.30;99.90
16485;DHT22;8353;47.856;12.344;2023-10-31T04:02:30;12.30;99.90
16485;DHT22;8353;47.856;12.344;2023-10-31T04:05:17;12.20;99.90
16485;DHT22;8353;47.856;12.344;2023-10-31T04:08:04;12.20;99.90
16485;DHT22;8353;47.856;12.344;2023-10-31T04:10:51;12.30;99.90
16485;DHT22;8353;47.856;12.344;2023-10-31T04:13:38;12.20;99.90
16485;DHT22;8353;47.856;12.344;2023-10-31T04:16:25;12.10;99.90
16485;DHT22;8353;47.856;12.344;2023-10-31T04:19:13;12.10;99.90
16485;DHT22;8353;47.856;12.344;2023-10-31T04:22:00;12.20;99.90
16485;DHT22;8353;47.856;12.344;2023-10-31T04:24:47;12.20;99.90
16485;DHT22;8353;47.856;12.344;2023-10-31T04:27:34;12.20;99.90
16485;DHT22;8353;47.856;12.344;2023-10-31T04:30:21;12.20;99.90
16485;DHT22;8353;47.856;12.344;2023-10-31T04:33:08;12.20;99.90
16485;DHT22;8353;47.856;12.344;2023-10-31T04:35:56;12.20;99.90
16485;DHT22;8353;47.856;12.344;2023-10-31T04:38:43;12.20;99.90
16485;DHT22;8353;47.856;12.344;2023-10-31T04:41:30;12.20;99.90
16485;DHT22;8353;47.856;12.344;2023-10-31T04:44:17;12.20;99.90
16485;DHT22;8353;47.856;12.344;2023-10-31T04:47:04;12.20;99.90
16485;DHT22;8353;47.856;12.344;2023-10-31T04:49:52;12.20;99.90
16485;DHT22;8353;47.856;12.344;2023-10-31T04:52:40;12.10;99.90
16485;DHT22;8353;47.856;12.344;2023-10-31T04:55:27;12.10;99.90
16485;DHT22;8353;47.856;12.344;2023-10-31T04:58:14;12.10;99.90
16485;DHT22;8353;47.856;12.344;2023-10-31T05:01:01;12.20;99.90
16485;DHT22;8353;47.856;12.344;2023-10-31T05:03:48;12.30;99.90
16485;DHT22;8353;47.856;12.344;2023-10-31T05:06:35;12.20;99.90
16485;DHT22;8353;47.856;12.344;2023-10-31T05:09:23;12.10;99.90
16485;DHT22;8353;47.856;12.344;2023-10-31T05:12:11;12.00;99.90
16485;DHT22;8353;47.856;12.344;2023-10-31T05:14:57;11.90;99.90
16485;DHT22;8353;47.856;12.344;2023-10-31T05:17:44;12.00;99.90
16485;DHT22;8353;47.856;12.344;2023-10-31T05:20:31;11.90;99.90
16485;DHT22;8353;47.856;12.344;2023-10-31T05:23:18;11.90;99.90
16485;DHT22;8353;47.856;12.344;2023-10-31T05:26:06;11.70;99.90
16485;DHT22;8353;47.856;12.344;2023-10-31T05:28:54;11.70;99.90
16485;DHT22;8353;47.856;12.344;2023-10-31T05:31:41;11.70;99.90
16485;DHT22;8353;47.856;12.344;2023-10-31T05:34:28;11.70;99.90
16485;DHT22;8353;47.856;12.344;2023-10-31T05:37:15;11.80;99.90
16485;DHT22;8353;47.856;12.344;2023-10-31T05:40:02;11.90;99.90
16485;DHT22;8353;47.856;12.344;2023-10-31T05:42:52;11.90;99.90
16485;DHT22;8353;47.856;12.344;2023-10-31T05:45:39;11.80;99.90
16485;DHT22;8353;47.856;12.344;2023-10-31T05:48:26;11.80;99.90
16485;DHT22;8353;47.856;12.344;2023-10-31T05:51:14;11.80;99.90
16485;DHT22;8353;47.856;12.344;2023-10-31T05:54:01;11.90;99.90
16485;DHT22;8353;47.856;12.344;2023-10-31T05:56:48;11.90;99.90
16485;DHT22;8353;47.856;12.344;2023-10-31T05:59:37;11.90;99.90
16485;DHT22;8353;47.856;12.344;2023-10-31T06:02:23;11.90;99.90
16485;DHT22;8353;47.856;12.344;2023-10-31T06:05:10;11.80;99.90
16485;DHT22;8353;47.856;12.344;2023-10-31T06:07:57;11.80;99.90
16485;DHT22;8353;47.856;12.344;2023-10-31T06:10:45;11.80;99.90
16485;DHT22;8353;47.856;12.344;2023-10-31T06:13:31;11.80;99.90
16485;DHT22;8353;47.856;12.344;2023-10-31T06:16:20;11.80;99.90
16485;DHT22;8353;47.856;12.344;2023-10-31T06:19:07;11.70;99.90
16485;DHT22;8353;47.856;12.344;2023-10-31T06:21:54;11.80;99.90
16485;DHT22;8353;47.856;12.344;2023-10-31T06:24:41;11.90;99.90
16485;DHT22;8353;47.856;12.344;2023-10-31T06:27:28;11.80;99.90
16485;DHT22;8353;47.856;12.344;2023-10-31T06:30:16;11.90;99.90
16485;DHT22;8353;47.856;12.344;2023-10-31T06:33:04;12.00;99.90
16485;DHT22;8353;47.856;12.344;2023-10-31T06:35:53;11.90;99.90
16485;DHT22;8353;47.856;12.344;2023-10-31T06:38:39;11.90;99.90
16485;DHT22;8353;47.856;12.344;2023-10-31T06:41:26;11.90;99.90
16485;DHT22;8353;47.856;12.344;2023-10-31T06:44:13;11.90;99.90
16485;DHT22;8353;47.856;12.344;2023-10-31T06:47:00;11.90;99.90
16485;DHT22;8353;47.856;12.344;2023-10-31T06:49:49;11.80;99.90
16485;DHT22;8353;47.856;12.344;2023-10-31T06:52:35;11.90;99.90
16485;DHT22;8353;47.856;12.344;2023-10-31T06:55:22;11.80;99.90
16485;DHT22;8353;47.856;12.344;2023-10-31T06:58:09;11.90;99.90
16485;DHT22;8353;47.856;12.344;2023-10-31T07:00:56;11.90;99.90
16485;DHT22;8353;47.856;12.344;2023-10-31T07:03:44;11.90;99.90
16485;DHT22;8353;47.856;12.344;2023-10-31T07:06:32;11.90;99.90
16485;DHT22;8353;47.856;12.344;2023-10-31T07:09:19;11.90;99.90
16485;DHT22;8353;47.856;12.344;2023-10-31T07:12:06;11.90;99.90
16485;DHT22;8353;47.856;12.344;2023-10-31T07:14:53;11.90;99.90
16485;DHT22;8353;47.856;12.344;2023-10-31T07:17:40;11.90;99.90
16485;DHT22;8353;47.856;12.344;2023-10-31T07:20:27;11.90;99.90
16485;DHT22;8353;47.856;12.344;2023-10-31T07:23:15;12.00;99.90
16485;DHT22;8353;47.856;12.344;2023-10-31T07:26:02;12.00;99.90
16485;DHT22;8353;47.856;12.344;2023-10-31T07:28:49;11.90;99.90
16485;DHT22;8353;47.856;12.344;2023-10-31T07:31:36;11.80;99.90
16485;DHT22;8353;47.856;12.344;2023-10-31T07:34:24;11.80;99.90
16485;DHT22;8353;47.856;12.344;2023-10-31T07:37:11;11.80;99.90
16485;DHT22;8353;47.856;12.344;2023-10-31T07:39:59;11.80;99.90
16485;DHT22;8353;47.856;12.344;2023-10-31T07:42:46;11.80;99.90
16485;DHT22;8353;47.856;12.344;2023-10-31T07:45:33;11.80;99.90
16485;DHT22;8353;47.856;12.344;2023-10-31T07:48:21;11.70;99.90
16485;DHT22;8353;47.856;12.344;2023-10-31T07:51:08;11.80;99.90
16485;DHT22;8353;47.856;12.344;2023-10-31T07:53:55;11.80;99.90
16485;DHT22;8353;47.856;12.344;2023-10-31T07:56:45;11.90;99.90
16485;DHT22;8353;47.856;12.344;2023-10-31T07:59:33;12.00;99.90
16485;DHT22;8353;47.856;12.344;2023-10-31T08:02:20;11.90;99.90
16485;DHT22;8353;47.856;12.344;2023-10-31T08:05:07;11.90;99.90
16485;DHT22;8353;47.856;12.344;2023-10-31T08:07:55;12.00;99.90
16485;DHT22;8353;47.856;12.344;2023-10-31T08:10:42;12.00;99.90
16485;DHT22;8353;47.856;12.344;2023-10-31T08:13:31;12.00;99.90
16485;DHT22;8353;47.856;12.344;2023-10-31T08:16:18;12.00;99.90
16485;DHT22;8353;47.856;12.344;2023-10-31T08:19:05;12.00;99.90
16485;DHT22;8353;47.856;12.344;2023-10-31T08:21:52;12.00;99.90
16485;DHT22;8353;47.856;12.344;2023-10-31T08:24:39;12.00;99.90
16485;DHT22;8353;47.856;12.344;2023-10-31T08:27:26;12.00;99.90
16485;DHT22;8353;47.856;12.344;2023-10-31T08:30:14;11.90;99.90
16485;DHT22;8353;47.856;12.344;2023-10-31T08:33:01;11.90;99.90
16485;DHT22;8353;47.856;12.344;2023-10-31T08:35:48;11.90;99.90
16485;DHT22;8353;47.856;12.344;2023-10-31T08:38:37;11.90;99.90
16485;DHT22;8353;47.856;12.344;2023-10-31T08:41:25;11.90;99.90
16485;DHT22;8353;47.856;12.344;2023-10-31T08:44:12;11.90;99.90
16485;DHT22;8353;47.856;12.344;2023-10-31T08:47:00;12.00;99.90
16485;DHT22;8353;47.856;12.344;2023-10-31T08:49:47;12.00;99.90
16485;DHT22;8353;47.856;12.344;2023-10-31T08:52:34;11.90;99.90
16485;DHT22;8353;47.856;12.344;2023-10-31T08:55:21;12.10;99.90
16485;DHT22;8353;47.856;12.344;2023-10-31T08:58:08;11.90;99.90
16485;DHT22;8353;47.856;12.344;2023-10-31T09:00:54;11.90;99.90
16485;DHT22;8353;47.856;12.344;2023-10-31T09:03:43;11.80;99.90
16485;DHT22;8353;47.856;12.344;2023-10-31T09:06:30;12.00;99.90
16485;DHT22;8353;47.856;12.344;2023-10-31T09:09:17;11.90;99.90
16485;DHT22;8353;47.856;12.344;2023-10-31T09:12:04;12.00;99.90
16485;DHT22;8353;47.856;12.344;2023-10-31T09:14:51;12.00;99.90
16485;DHT22;8353;47.856;12.344;2023-10-31T09:17:38;12.00;99.90
16485;DHT22;8353;47.856;12.344;2023-10-31T09:20:27;12.00;99.90
16485;DHT22;8353;47.856;12.344;2023-10-31T09:23:15;12.00;99.90
16485;DHT22;8353;47.856;12.344;2023-10-31T09:26:03;12.00;99.90
16485;DHT22;8353;47.856;12.344;2023-10-31T09:28:50;12.00;99.90
16485;DHT22;8353;47.856;12.344;2023-10-31T09:31:37;12.00;99.90
16485;DHT22;8353;47.856;12.344;2023-10-31T09:34:24;12.00;99.90
16485;DHT22;8353;47.856;12.344;2023-10-31T09:37:12;12.00;99.90
16485;DHT22;8353;47.856;12.344;2023-10-31T09:39:59;12.10;99.90
16485;DHT22;8353;47.856;12.344;2023-10-31T09:42:46;12.20;99.90
16485;DHT22;8353;47.856;12.344;2023-10-31T09:45:33;12.20;99.90
16485;DHT22;8353;47.856;12.344;2023-10-31T09:48:20;12.30;99.90
16485;DHT22;8353;47.856;12.344;2023-10-31T09:51:07;12.20;99.90
16485;DHT22;8353;47.856;12.344;2023-10-31T09:53:57;12.40;99.90
16485;DHT22;8353;47.856;12.344;2023-10-31T09:56:46;12.40;99.90
16485;DHT22;8353;47.856;12.344;2023-10-31T09:59:33;12.40;99.90
16485;DHT22;8353;47.856;12.344;2023-10-31T10:02:20;12.40;99.90
16485;DHT22;8353;47.856;12.344;2023-10-31T10:05:09;12.40;99.90
16485;DHT22;8353;47.856;12.344;2023-10-31T10:07:57;12.50;99.90
16485;DHT22;8353;47.856;12.344;2023-10-31T10:10:45;12.50;99.90
16485;DHT22;8353;47.856;12.344;2023-10-31T10:13:32;12.40;99.90
16485;DHT22;8353;47.856;12.344;2023-10-31T10:16:31;12.40;99.90
16485;DHT22;8353;47.856;12.344;2023-10-31T10:19:19;12.40;99.90
16485;DHT22;8353;47.856;12.344;2023-10-31T10:22:06;12.30;99.90
16485;DHT22;8353;47.856;12.344;2023-10-31T10:24:53;12.30;99.90
16485;DHT22;8353;47.856;12.344;2023-10-31T10:27:41;12.30;99.90
16485;DHT22;8353;47.856;12.344;2023-10-31T10:30:28;12.30;99.90
16485;DHT22;8353;47.856;12.344;2023-10-31T10:33:15;12.40;99.90
16485;DHT22;8353;47.856;12.344;2023-10-31T10:36:03;12.50;99.90
16485;DHT22;8353;47.856;12.344;2023-10-31T10:38:52;12.50;99.90
16485;DHT22;8353;47.856;12.344;2023-10-31T10:41:42;12.50;99.90
16485;DHT22;8353;47.856;12.344;2023-10-31T10:44:33;12.60;99.90
16485;DHT22;8353;47.856;12.344;2023-10-31T10:47:21;12.70;99.90
16485;DHT22;8353;47.856;12.344;2023-10-31T10:50:09;12.80;99.90
16485;DHT22;8353;47.856;12.344;2023-10-31T10:53:07;12.70;99.90
16485;DHT22;8353;47.856;12.344;2023-10-31T10:56:00;12.70;99.90
16485;DHT22;8353;47.856;12.344;2023-10-31T10:58:52;12.80;99.90
16485;DHT22;8353;47.856;12.344;2023-10-31T11:01:43;12.80;99.90
16485;DHT22;8353;47.856;12.344;2023-10-31T11:04:32;12.90;99.90
16485;DHT22;8353;47.856;12.344;2023-10-31T11:07:20;12.90;99.90
16485;DHT22;8353;47.856;12.344;2023-10-31T11:10:09;12.90;99.90
16485;DHT22;8353;47.856;12.344;2023-10-31T11:12:56;12.90;99.90
16485;DHT22;8353;47.856;12.344;2023-10-31T11:15:43;12.90;99.90
16485;DHT22;8353;47.856;12.344;2023-10-31T11:18:32;13.00;99.90
16485;DHT22;8353;47.856;12.344;2023-10-31T11:21:22;13.00;99.90
16485;DHT22;8353;47.856;12.344;2023-10-31T11:24:10;13.10;99.90
16485;DHT22;8353;47.856;12.344;2023-10-31T11:26:59;13.10;99.90
16485;DHT22;8353;47.856;12.344;2023-10-31T11:29:47;13.10;99.90
16485;DHT22;8353;47.856;12.344;2023-10-31T11:32:34;13.00;99.90
16485;DHT22;8353;47.856;12.344;2023-10-31T11:35:23;13.00;99.90
16485;DHT22;8353;47.856;12.344;2023-10-31T11:38:11;13.00;99.90
16485;DHT22;8353;47.856;12.344;2023-10-31T11:41:00;13.10;99.90
16485;DHT22;8353;47.856;12.344;2023-10-31T11:43:52;13.00;99.90
16485;DHT22;8353;47.856;12.344;2023-10-31T11:46:39;13.10;99.90
16485;DHT22;8353;47.856;12.344;2023-10-31T11:49:45;13.10;99.90
16485;DHT22;8353;47.856;12.344;2023-10-31T11:52:35;13.30;99.90
16485;DHT22;8353;47.856;12.344;2023-10-31T11:55:21;13.30;99.90
16485;DHT22;8353;47.856;12.344;2023-10-31T11:58:19;13.40;99.90
16485;DHT22;8353;47.856;12.344;2023-10-31T12:01:08;13.40;99.90
16485;DHT22;8353;47.856;12.344;2023-10-31T12:03:55;13.30;99.90
16485;DHT22;8353;47.856;12.344;2023-10-31T12:06:42;13.30;99.90
16485;DHT22;8353;47.856;12.344;2023-10-31T12:09:31;13.30;99.90
16485;DHT22;8353;47.856;12.344;2023-10-31T12:12:30;13.30;99.90
16485;DHT22;8353;47.856;12.344;2023-10-31T12:15:17;13.30;99.90
16485;DHT22;8353;47.856;12.344;2023-10-31T12:18:04;13.40;99.90
16485;DHT22;8353;47.856;12.344;2023-10-31T12:20:51;13.30;99.90
16485;DHT22;8353;47.856;12.344;2023-10-31T12:23:38;13.30;99.90
16485;DHT22;8353;47.856;12.344;2023-10-31T12:26:26;13.30;99.90
16485;DHT22;8353;47.856;12.344;2023-10-31T12:29:15;13.50;99.90
16485;DHT22;8353;47.856;12.344;2023-10-31T12:32:03;13.50;99.90
16485;DHT22;8353;47.856;12.344;2023-10-31T12:34:50;13.50;99.90
16485;DHT22;8353;47.856;12.344;2023-10-31T12:37:38;13.50;99.90
16485;DHT22;8353;47.856;12.344;2023-10-31T12:40:25;13.50;99.90
16485;DHT22;8353;47.856;12.344;2023-10-31T12:43:13;13.50;99.90
16485;DHT22;8353;47.856;12.344;2023-10-31T12:46:24;13.60;99.90
16485;DHT22;8353;47.856;12.344;2023-10-31T12:49:12;13.60;99.90
16485;DHT22;8353;47.856;12.344;2023-10-31T12:52:00;13.60;99.90
16485;DHT22;8353;47.856;12.344;2023-10-31T12:54:49;13.60;99.90
16485;DHT22;8353;47.856;12.344;2023-10-31T12:57:36;13.60;99.90
16485;DHT22;8353;47.856;12.344;2023-10-31T13:00:31;13.70;99.90
16485;DHT22;8353;47.856;12.344;2023-10-31T13:03:19;13.80;99.90
16485;DHT22;8353;47.856;12.344;2023-10-31T13:06:14;13.70;99.90
16485;DHT22;8353;47.856;12.344;2023-10-31T13:09:01;13.50;99.90
16485;DHT22;8353;47.856;12.344;2023-10-31T13:11:49;13.50;99.90
16485;DHT22;8353;47.856;12.344;2023-10-31T13:14:36;13.50;99.90
16485;DHT22;8353;47.856;12.344;2023-10-31T13:17:25;13.50;99.90
16485;DHT22;8353;47.856;12.344;2023-10-31T13:20:14;13.60;99.90
16485;DHT22;8353;47.856;12.344;2023-10-31T13:23:01;13.60;99.90
16485;DHT22;8353;47.856;12.344;2023-10-31T13:25:48;13.60;99.90
16485;DHT22;8353;47.856;12.344;2023-10-31T13:28:35;13.60;99.90
16485;DHT22;8353;47.856;12.344;2023-10-31T13:31:24;13.60;99.90
16485;DHT22;8353;47.856;12.344;2023-10-31T13:34:13;13.60;99.90
16485;DHT22;8353;47.856;12.344;2023-10-31T13:37:00;13.50;99.90
16485;DHT22;8353;47.856;12.344;2023-10-31T13:39:48;13.50;99.90
16485;DHT22;8353;47.856;12.344;2023-10-31T13:42:35;13.50;99.90
16485;DHT22;8353;47.856;12.344;2023-10-31T13:45:22;13.50;99.90
16485;DHT22;8353;47.856;12.344;2023-10-31T13:48:09;13.50;99.90
16485;DHT22;8353;47.856;12.344;2023-10-31T13:50:58;13.40;99.90
16485;DHT22;8353;47.856;12.344;2023-10-31T13:53:45;13.50;99.90
16485;DHT22;8353;47.856;12.344;2023-10-31T13:56:32;13.40;99.90
16485;DHT22;8353;47.856;12.344;2023-10-31T13:59:19;13.30;99.90
16485;DHT22;8353;47.856;12.344;2023-10-31T14:02:06;13.10;99.90
16485;DHT22;8353;47.856;12.344;2023-10-31T14:04:53;13.00;99.90
16485;DHT22;8353;47.856;12.344;2023-10-31T14:07:42;13.00;99.90
16485;DHT22;8353;47.856;12.344;2023-10-31T14:10:29;13.10;99.90
16485;DHT22;8353;47.856;12.344;2023-10-31T14:13:17;13.10;99.90
16485;DHT22;8353;47.856;12.344;2023-10-31T14:16:06;13.10;99.90
16485;DHT22;8353;47.856;12.344;2023-10-31T14:18:53;13.30;99.90
16485;DHT22;8353;47.856;12.344;2023-10-31T14:21:40;13.30;99.90
16485;DHT22;8353;47.856;12.344;2023-10-31T14:24:29;13.40;99.90
16485;DHT22;8353;47.856;12.344;2023-10-31T14:27:17;13.40;99.90
16485;DHT22;8353;47.856;12.344;2023-10-31T14:30:06;13.30;99.90
16485;DHT22;8353;47.856;12.344;2023-10-31T14:32:53;13.20;99.90
16485;DHT22;8353;47.856;12.344;2023-10-31T14:35:40;13.30;99.90
16485;DHT22;8353;47.856;12.344;2023-10-31T14:38:27;13.30;99.90
16485;DHT22;8353;47.856;12.344;2023-10-31T14:41:15;13.40;99.90
16485;DHT22;8353;47.856;12.344;2023-10-31T14:44:02;13.40;99.90
16485;DHT22;8353;47.856;12.344;2023-10-31T14:46:49;13.30;99.90
16485;DHT22;8353;47.856;12.344;2023-10-31T14:49:36;13.30;99.90
16485;DHT22;8353;47.856;12.344;2023-10-31T14:52:23;13.30;99.90
16485;DHT22;8353;47.856;12.344;2023-10-31T14:55:10;13.10;99.90
16485;DHT22;8353;47.856;12.344;2023-10-31T14:57:59;13.10;99.90
16485;DHT22;8353;47.856;12.344;2023-10-31T15:00:46;13.10;99.90
16485;DHT22;8353;47.856;12.344;2023-10-31T15:03:33;13.10;99.90
16485;DHT22;8353;47.856;12.344;2023-10-31T15:06:20;13.10;99.90
16485;DHT22;8353;47.856;12.344;2023-10-31T15:09:07;13.30;99.90
16485;DHT22;8353;47.856;12.344;2023-10-31T15:11:54;13.20;99.90
16485;DHT22;8353;47.856;12.344;2023-10-31T15:14:43;13.10;99.90
16485;DHT22;8353;47.856;12.344;2023-10-31T15:17:30;13.20;99.90
16485;DHT22;8353;47.856;12.344;2023-10-31T15:20:17;13.10;99.90
16485;DHT22;8353;47.856;12.344;2023-10-31T15:23:04;13.20;99.90
16485;DHT22;8353;47.856;12.344;2023-10-31T15:25:50;13.20;99.90
16485;DHT22;8353;47.856;12.344;2023-10-31T15:28:38;13.20;99.90
16485;DHT22;8353;47.856;12.344;2023-10-31T15:31:26;13.20;99.90
16485;DHT22;8353;47.856;12.344;2023-10-31T15:34:13;13.10;99.90
16485;DHT22;8353;47.856;12.344;2023-10-31T15:37:00;13.10;99.90
16485;DHT22;8353;47.856;12.344;2023-10-31T15:39:47;13.10;99.90
16485;DHT22;8353;47.856;12.344;2023-10-31T15:42:36;13.10;99.90
16485;DHT22;8353;47.856;12.344;2023-10-31T15:45:23;13.10;99.90
16485;DHT22;8353;47.856;12.344;2023-10-31T15:48:11;13.10;99.90
16485;DHT22;8353;47.856;12.344;2023-10-31T15:50:59;13.20;99.90
16485;DHT22;8353;47.856;12.344;2023-10-31T15:53:46;13.10;99.90
16485;DHT22;8353;47.856;12.344;2023-10-31T15:56:33;13.30;99.90
16485;DHT22;8353;47.856;12.344;2023-10-31T15:59:20;13.00;99.90
16485;DHT22;8353;47.856;12.344;2023-10-31T16:02:07;13.10;99.90
16485;DHT22;8353;47.856;12.344;2023-10-31T16:04:55;13.10;99.90
16485;DHT22;8353;47.856;12.344;2023-10-31T16:07:42;13.10;99.90
16485;DHT22;8353;47.856;12.344;2023-10-31T16:10:29;13.10;99.90
16485;DHT22;8353;47.856;12.344;2023-10-31T16:13:16;13.10;99.90
16485;DHT22;8353;47.856;12.344;2023-10-31T16:16:04;13.10;99.90
16485;DHT22;8353;47.856;12.344;2023-10-31T16:18:52;13.10;99.90
16485;DHT22;8353;47.856;12.344;2023-10-31T16:21:40;13.20;99.90
16485;DHT22;8353;47.856;12.344;2023-10-31T16:24:27;13.10;99.90
16485;DHT22;8353;47.856;12.344;2023-10-31T16:27:14;13.20;99.90
16485;DHT22;8353;47.856;12.344;2023-10-31T16:30:01;13.30;99.90
16485;DHT22;8353;47.856;12.344;2023-10-31T16:32:48;13.20;99.90
16485;DHT22;8353;47.856;12.344;2023-10-31T16:35:35;13.20;99.90
16485;DHT22;8353;47.856;12.344;2023-10-31T16:38:23;13.10;99.90
16485;DHT22;8353;47.856;12.344;2023-10-31T16:41:13;13.10;99.90
16485;DHT22;8353;47.856;12.344;2023-10-31T16:44:00;13.10;99.90
16485;DHT22;8353;47.856;12.344;2023-10-31T16:46:47;13.10;99.90
16485;DHT22;8353;47.856;12.344;2023-10-31T16:49:34;13.10;99.90
16485;DHT22;8353;47.856;12.344;2023-10-31T16:52:21;13.20;99.90
16485;DHT22;8353;47.856;12.344;2023-10-31T16:55:09;13.10;99.90
16485;DHT22;8353;47.856;12.344;2023-10-31T16:57:56;13.00;99.90
16485;DHT22;8353;47.856;12.344;2023-10-31T17:00:43;13.00;99.90
16485;DHT22;8353;47.856;12.344;2023-10-31T17:03:30;13.00;99.90
16485;DHT22;8353;47.856;12.344;2023-10-31T17:06:17;13.20;99.90
16485;DHT22;8353;47.856;12.344;2023-10-31T17:09:04;13.10;99.90
16485;DHT22;8353;47.856;12.344;2023-10-31T17:11:52;13.00;99.90
16485;DHT22;8353;47.856;12.344;2023-10-31T17:14:39;13.00;99.90
16485;DHT22;8353;47.856;12.344;2023-10-31T17:17:26;12.90;99.90
16485;DHT22;8353;47.856;12.344;2023-10-31T17:20:13;12.90;99.90
16485;DHT22;8353;47.856;12.344;2023-10-31T17:23:00;12.90;99.90
16485;DHT22;8353;47.856;12.344;2023-10-31T17:25:47;13.00;99.90
16485;DHT22;8353;47.856;12.344;2023-10-31T17:28:35;13.00;99.90
16485;DHT22;8353;47.856;12.344;2023-10-31T17:31:24;13.00;99.90
16485;DHT22;8353;47.856;12.344;2023-10-31T17:34:11;13.00;99.90
16485;DHT22;8353;47.856;12.344;2023-10-31T17:36:57;13.00;99.90
16485;DHT22;8353;47.856;12.344;2023-10-31T17:39:45;13.00;99.90